createdAt,value
2022-10-01T00:00:56.596Z,92.05
2022-10-01T00:05:10.978Z,92.18
2022-10-01T00:09:13.073Z,92.15
2022-10-01T00:13:15.172Z,91.95
2022-10-01T00:17:17.413Z,91.99
2022-10-01T00:21:26.585Z,91.93
2022-10-01T00:25:28.663Z,92.00
2022-10-01T00:29:31.486Z,92.15
2022-10-01T00:33:34.163Z,92.05
2022-10-01T00:37:37.367Z,92.06
2022-10-01T00:41:40.305Z,91.93
2022-10-01T00:45:42.419Z,91.89
2022-10-01T00:49:46.878Z,91.97
2022-10-01T00:53:48.953Z,91.92
2022-10-01T00:57:51.998Z,91.78
2022-10-01T01:01:54.433Z,91.24
2022-10-01T01:05:56.945Z,91.30
2022-10-01T01:10:00.453Z,91.39
2022-10-01T01:14:22.571Z,91.27
2022-10-01T01:18:40.807Z,91.17
2022-10-01T01:22:54.342Z,91.33
2022-10-01T01:27:05.929Z,91.55
2022-10-01T01:31:14.045Z,91.55
2022-10-01T01:35:40.563Z,91.61
2022-10-01T01:39:49.854Z,91.42
2022-10-01T01:43:56.086Z,91.21
2022-10-01T01:48:01.809Z,91.33
2022-10-01T01:52:13.042Z,91.15
2022-10-01T01:56:16.861Z,90.56
2022-10-01T02:00:19.062Z,90.56
2022-10-01T02:04:39.536Z,90.59
2022-10-01T02:08:51.754Z,90.71
2022-10-01T02:13:03.545Z,91.06
2022-10-01T02:17:37.003Z,91.55
2022-10-01T02:22:01.014Z,91.86
2022-10-01T02:26:16.220Z,92.01
2022-10-01T02:30:18.763Z,91.91
2022-10-01T02:34:27.929Z,91.01
2022-10-01T02:38:31.537Z,90.59
2022-10-01T02:42:36.600Z,91.18
2022-10-01T02:47:07.268Z,91.05
2022-10-01T02:51:28.531Z,91.71
2022-10-01T02:55:41.774Z,92.02
2022-10-01T02:59:44.326Z,91.94
2022-10-01T03:03:46.619Z,91.94
2022-10-01T03:07:48.802Z,92.43
2022-10-01T03:11:50.881Z,92.26
2022-10-01T03:15:52.984Z,91.83
2022-10-01T03:19:55.332Z,91.74
2022-10-01T03:23:57.511Z,91.61
2022-10-01T03:27:59.646Z,91.81
2022-10-01T03:32:01.908Z,92.09
2022-10-01T03:36:05.034Z,92.34
2022-10-01T03:40:07.917Z,92.56
2022-10-01T03:44:10.157Z,92.24
2022-10-01T03:48:12.236Z,92.57
2022-10-01T03:52:14.243Z,92.60
2022-10-01T03:56:18.035Z,92.63
2022-10-01T04:00:20.506Z,93.13
2022-10-01T04:04:22.619Z,93.64
2022-10-01T04:08:25.007Z,94.14
2022-10-01T04:12:27.596Z,94.02
2022-10-01T04:16:29.711Z,93.66
2022-10-01T04:20:33.555Z,93.55
2022-10-01T04:24:35.596Z,93.34
2022-10-01T04:28:37.717Z,93.49
2022-10-01T04:32:39.778Z,93.57
2022-10-01T04:36:42.379Z,93.03
2022-10-01T04:40:44.503Z,92.74
2022-10-01T04:44:47.085Z,92.82
2022-10-01T04:48:49.218Z,92.48
2022-10-01T04:52:52.270Z,92.54
2022-10-01T04:56:54.303Z,92.54
2022-10-01T05:01:01.052Z,92.56
2022-10-01T05:05:06.483Z,92.03
2022-10-01T05:09:08.534Z,91.81
2022-10-01T05:13:11.608Z,91.92
2022-10-01T05:17:18.058Z,92.57
2022-10-01T05:21:20.480Z,92.38
2022-10-01T05:25:23.117Z,92.48
2022-10-01T05:29:25.258Z,92.59
2022-10-01T05:33:29.213Z,92.60
2022-10-01T05:37:31.610Z,92.75
2022-10-01T05:41:34.051Z,93.03
2022-10-01T05:45:36.415Z,93.83
2022-10-01T05:49:42.824Z,93.87
2022-10-01T05:53:50.532Z,93.93
2022-10-01T05:57:54.799Z,93.74
2022-10-01T06:01:56.939Z,93.44
2022-10-01T06:05:59.543Z,93.71
2022-10-01T06:10:01.591Z,93.61
2022-10-01T06:14:03.694Z,93.79
2022-10-01T06:18:09.949Z,94.08
2022-10-01T06:22:11.967Z,94.30
2022-10-01T06:26:14.015Z,94.62
2022-10-01T06:30:16.048Z,94.99
2022-10-01T06:34:18.088Z,95.29
2022-10-01T06:38:21.891Z,95.03
2022-10-01T06:42:24.435Z,94.67
2022-10-01T06:46:28.450Z,94.49
2022-10-01T06:50:31.838Z,94.53
2022-10-01T06:54:33.813Z,94.37
2022-10-01T06:58:36.933Z,94.21
2022-10-01T07:02:39.521Z,94.29
2022-10-01T07:06:41.903Z,93.81
2022-10-01T07:10:45.604Z,93.66
2022-10-01T07:14:47.662Z,93.77
2022-10-01T07:18:49.672Z,94.10
2022-10-01T07:22:58.135Z,93.83
2022-10-01T07:27:03.785Z,93.49
2022-10-01T07:31:10.970Z,93.53
2022-10-01T07:35:14.527Z,93.38
2022-10-01T07:39:16.773Z,93.53
2022-10-01T07:43:18.834Z,93.65
2022-10-01T07:47:21.852Z,93.25
2022-10-01T07:51:26.317Z,93.08
2022-10-01T07:55:30.268Z,93.40
2022-10-01T07:59:32.882Z,93.50
2022-10-01T08:03:35.395Z,93.25
2022-10-01T08:07:37.415Z,93.16
2022-10-01T08:11:39.393Z,92.92
2022-10-01T08:15:49.999Z,93.24
2022-10-01T08:19:52.141Z,93.53
2022-10-01T08:23:54.233Z,93.38
2022-10-01T08:27:56.561Z,93.33
2022-10-01T08:31:58.590Z,93.29
2022-10-01T08:36:02.511Z,93.22
2022-10-01T08:40:05.590Z,93.17
2022-10-01T08:44:17.792Z,93.26
2022-10-01T08:48:41.934Z,93.32
2022-10-01T08:52:53.584Z,93.48
2022-10-01T08:57:00.663Z,93.59
2022-10-01T09:01:04.711Z,93.41
2022-10-01T09:05:18.287Z,93.22
2022-10-01T09:09:40.538Z,93.12
2022-10-01T09:14:24.736Z,93.03
2022-10-01T10:41:48.804Z,91.16
2022-10-01T10:46:04.173Z,91.39
2022-10-01T10:50:41.123Z,91.36
2022-10-01T10:54:51.307Z,91.34
2022-10-01T10:59:10.225Z,91.14
2022-10-01T11:03:54.529Z,91.14
2022-10-01T11:08:19.997Z,90.96
2022-10-01T11:12:48.352Z,90.74
2022-10-01T11:17:12.722Z,90.74
2022-10-01T11:21:27.017Z,90.63
2022-10-01T11:26:07.613Z,90.67
2022-10-01T11:30:44.789Z,90.35
2022-10-01T11:35:36.817Z,90.23
2022-10-01T11:39:43.827Z,90.03
2022-10-01T11:44:28.446Z,89.54
2022-10-01T11:48:57.127Z,89.20
2022-10-01T11:53:37.687Z,89.27
2022-10-01T11:57:59.730Z,89.28
2022-10-01T12:02:11.194Z,89.00
2022-10-01T12:06:37.637Z,89.01
2022-10-01T12:10:46.949Z,89.14
2022-10-01T12:14:56.682Z,89.04
2022-10-01T12:19:17.144Z,88.74
2022-10-01T12:23:30.586Z,88.80
2022-10-01T12:27:55.971Z,88.66
2022-10-01T12:32:37.364Z,88.54
2022-10-01T12:37:11.998Z,88.26
2022-10-01T12:41:24.138Z,88.11
2022-10-01T12:45:48.474Z,88.19
2022-10-01T12:50:36.860Z,88.03
2022-10-01T12:54:59.978Z,87.60
2022-10-01T12:59:11.802Z,87.49
2022-10-01T13:03:43.163Z,87.69
2022-10-01T13:08:03.997Z,87.64
2022-10-01T13:12:45.378Z,87.52
2022-10-01T13:17:18.935Z,87.33
2022-10-01T13:21:45.889Z,87.25
2022-10-01T13:26:10.765Z,86.96
2022-10-01T13:30:53.078Z,86.78
2022-10-01T13:34:57.115Z,86.76
2022-10-01T13:38:59.609Z,86.68
2022-10-01T13:43:23.402Z,86.27
2022-10-01T13:47:30.560Z,86.36
2022-10-01T13:51:38.029Z,86.72
2022-10-01T13:55:46.344Z,86.59
2022-10-01T13:59:59.822Z,86.54
2022-10-01T14:04:40.104Z,86.40
2022-10-01T14:09:10.848Z,86.25
2022-10-01T14:13:33.392Z,86.11
2022-10-01T14:17:41.502Z,85.88
2022-10-01T14:22:07.655Z,86.20
2022-10-01T14:26:37.553Z,85.93
2022-10-01T14:30:42.094Z,85.57
2022-10-01T14:35:01.052Z,85.93
2022-10-01T14:39:21.576Z,86.17
2022-10-01T14:43:28.147Z,86.22
2022-10-01T14:47:39.360Z,86.07
2022-10-01T14:51:57.822Z,86.21
2022-10-01T14:56:05.347Z,86.35
2022-10-01T15:00:19.633Z,86.39
2022-10-01T15:04:22.089Z,86.10
2022-10-01T15:08:40.989Z,86.10
2022-10-01T15:12:55.519Z,86.33
2022-10-01T15:17:19.219Z,86.18
2022-10-01T15:21:48.324Z,86.43
2022-10-01T15:25:56.057Z,86.41
2022-10-01T15:30:00.115Z,86.27
2022-10-01T15:34:14.899Z,86.33
2022-10-01T15:38:17.791Z,86.56
2022-10-01T15:42:26.202Z,86.56
2022-10-01T15:46:30.766Z,86.41
2022-10-01T15:50:36.986Z,86.44
2022-10-01T15:54:41.406Z,86.69
2022-10-01T15:58:55.099Z,86.79
2022-10-01T16:02:58.398Z,86.61
2022-10-01T16:07:00.760Z,86.66
2022-10-01T16:11:16.514Z,86.72
2022-10-01T16:15:30.944Z,86.74
2022-10-01T16:19:33.906Z,86.81
2022-10-01T16:23:41.922Z,87.33
2022-10-01T16:27:50.110Z,87.46
2022-10-01T16:31:53.199Z,87.54
2022-10-01T16:36:10.019Z,87.53
2022-10-01T16:40:16.257Z,87.47
2022-10-01T16:44:19.524Z,87.36
2022-10-01T16:48:24.838Z,87.77
2022-10-01T16:52:26.890Z,87.42
2022-10-01T16:56:29.255Z,87.01
2022-10-01T17:00:31.929Z,86.91
2022-10-01T17:04:36.211Z,86.90
2022-10-01T17:08:38.206Z,86.93
2022-10-01T17:12:41.668Z,87.01
2022-10-01T17:16:46.906Z,86.41
2022-10-01T17:20:54.185Z,86.82
2022-10-01T17:24:56.232Z,87.84
2022-10-01T17:28:58.183Z,88.39
2022-10-01T17:33:01.509Z,88.41
2022-10-01T17:37:03.543Z,88.05
2022-10-01T17:41:08.633Z,87.45
2022-10-01T17:45:16.540Z,87.12
2022-10-01T17:49:18.928Z,87.29
2022-10-01T17:53:21.271Z,87.52
2022-10-01T17:57:27.066Z,87.60
2022-10-01T18:01:29.804Z,87.69
2022-10-01T18:05:32.370Z,87.85
2022-10-01T18:09:37.084Z,88.23
2022-10-01T18:13:39.721Z,88.09
2022-10-01T18:17:47.952Z,87.89
2022-10-01T18:21:53.307Z,87.86
2022-10-01T18:25:57.787Z,88.40
2022-10-01T18:30:00.486Z,88.17
2022-10-01T18:34:09.716Z,88.21
2022-10-01T18:38:25.569Z,88.57
2022-10-01T18:42:33.363Z,88.91
2022-10-01T18:46:48.316Z,88.97
2022-10-01T18:50:50.319Z,89.67
2022-10-01T18:54:58.681Z,89.92
2022-10-01T18:59:35.909Z,89.64
2022-10-01T19:04:02.804Z,88.92
2022-10-01T19:08:50.017Z,89.11
2022-10-01T19:13:16.230Z,89.14
2022-10-01T19:17:27.366Z,88.81
2022-10-01T19:22:09.931Z,88.82
2022-10-01T19:26:40.995Z,88.76
2022-10-01T19:31:21.052Z,89.20
2022-10-01T19:35:46.082Z,89.30
2022-10-01T19:40:01.981Z,88.88
2022-10-01T19:44:31.583Z,89.17
2022-10-01T19:49:07.478Z,89.57
2022-10-01T19:54:14.918Z,89.57
2022-10-01T19:58:21.148Z,89.75
2022-10-01T20:02:55.518Z,89.59
2022-10-01T20:07:10.142Z,89.76
2022-10-01T20:11:27.056Z,89.05
2022-10-01T20:15:49.440Z,89.21
2022-10-01T20:26:18.260Z,89.06
2022-10-01T20:36:18.142Z,90.28
2022-10-01T20:46:20.216Z,89.13
2022-10-01T20:56:31.633Z,89.99
2022-10-01T21:00:58.417Z,89.67
2022-10-01T21:05:24.235Z,89.46
2022-10-01T21:09:50.547Z,89.70
2022-10-01T21:14:19.625Z,89.51
2022-10-01T21:18:48.058Z,89.70
2022-10-01T21:23:38.463Z,89.84
2022-10-01T21:27:46.895Z,89.69
2022-10-01T21:32:39.374Z,89.40
2022-10-01T21:36:58.059Z,88.87
2022-10-01T21:48:30.580Z,89.28
2022-10-01T21:53:16.119Z,89.73
2022-10-01T22:03:46.153Z,89.85
2022-10-01T22:09:11.389Z,89.72
2022-10-01T22:23:50.778Z,90.15
2022-10-01T22:28:38.475Z,90.44
2022-10-01T22:32:56.079Z,90.78
2022-10-01T22:37:43.296Z,90.81
2022-10-01T22:42:15.242Z,90.92
2022-10-01T22:47:19.546Z,91.03
2022-10-01T22:51:56.814Z,91.02
2022-10-01T22:56:03.021Z,91.07
2022-10-01T23:00:22.398Z,91.13
2022-10-01T23:04:49.227Z,91.08
2022-10-01T23:09:04.547Z,90.98
2022-10-01T23:13:57.336Z,91.19
2022-10-01T23:18:41.682Z,91.19
2022-10-01T23:22:56.575Z,91.41
2022-10-01T23:28:36.017Z,91.12
2022-10-01T23:33:25.777Z,90.82
2022-10-01T23:37:43.449Z,90.66
2022-10-01T23:42:32.811Z,90.65
2022-10-01T23:46:52.978Z,90.83
2022-10-01T23:51:46.118Z,91.17
2022-10-01T23:56:50.323Z,91.06
